Time;durP1;ratioP1;P1;durP2;ratioP2;P2;SDS_P1;SDS_P2;PMS_P1;PMS_P2;Temp;Humidity;BMP_temperature;BMP_pressure;BME280_temperature;BME280_humidity;BME280_pressure;Samples;Min_cycle;Max_cycle;Signal;HPM_P1;HPM_P2
2021/10/16 00:01:53;;;;;;;26.00;16.50;;;;;;;5.83;67.06;99843.48;116495;1203;23121;-59
2021/10/16 00:04:21;;;;;;;26.00;16.80;;;;;;;5.82;67.32;99841.45;116316;1201;138576;-59
2021/10/16 00:06:51;;;;;;;32.20;18.10;;;;;;;5.79;67.37;99845.38;113595;1202;22430;-59
2021/10/16 00:09:21;;;;;;;29.00;17.70;;;;;;;5.74;67.43;99841.57;116513;1202;23140;-60
2021/10/16 00:11:49;;;;;;;31.90;17.70;;;;;;;5.72;67.54;99842.24;116291;1203;139568;-59
2021/10/16 00:14:17;;;;;;;36.90;18.80;;;;;;;5.69;67.52;99842.05;116529;1202;22330;-59
2021/10/16 00:16:45;;;;;;;28.30;18.00;;;;;;;5.67;67.83;99839.02;116514;1201;138303;-60
2021/10/16 00:19:13;;;;;;;28.20;17.60;;;;;;;5.65;67.87;99839.23;116433;1201;22280;-61
2021/10/16 00:21:41;;;;;;;28.60;17.70;;;;;;;5.63;68.24;99832.59;116599;1202;22386;-61
2021/10/16 00:24:10;;;;;;;28.60;18.20;;;;;;;5.62;68.31;99830.46;116484;1201;138059;-61
2021/10/16 00:26:38;;;;;;;29.60;18.00;;;;;;;5.59;68.29;99823.83;116457;1201;22269;-61
2021/10/16 00:29:06;;;;;;;28.30;17.60;;;;;;;5.57;68.34;99820.52;116487;1195;139318;-61
2021/10/16 00:31:35;;;;;;;31.00;18.40;;;;;;;5.54;68.25;99815.53;116522;1202;22220;-60
2021/10/16 00:34:03;;;;;;;27.10;16.50;;;;;;;5.51;68.46;99817.59;116294;1202;138554;-61
2021/10/16 00:36:32;;;;;;;30.00;17.20;;;;;;;5.48;68.66;99812.99;116613;1196;22393;-60
2021/10/16 00:39:00;;;;;;;28.60;16.60;;;;;;;5.46;68.63;99810.23;116598;1201;22313;-61
2021/10/16 00:41:34;;;;;;;28.60;18.70;;;;;;;5.44;68.80;99813.12;116465;1201;137830;-61
2021/10/16 00:44:19;;;;;;;31.70;18.40;;;;;;;5.41;68.74;99807.92;116607;1201;24628;-60
2021/10/16 00:46:48;;;;;;;33.50;19.20;;;;;;;5.37;68.93;99799.80;116536;1201;137909;-61
2021/10/16 00:49:16;;;;;;;28.60;17.10;;;;;;;5.32;68.77;99801.58;116565;1202;23263;-61
2021/10/16 00:51:44;;;;;;;33.50;19.10;;;;;;;5.26;68.85;99801.20;116635;1201;23587;-61
2021/10/16 00:54:12;;;;;;;29.00;18.00;;;;;;;5.18;68.39;99796.34;116533;1201;137953;-61
2021/10/16 00:56:42;;;;;;;29.70;18.60;;;;;;;5.09;68.56;99792.65;116539;1201;22280;-60
2021/10/16 00:59:10;;;;;;;28.20;17.60;;;;;;;4.99;68.74;99785.19;116466;1201;138801;-60
2021/10/16 01:01:39;;;;;;;25.70;16.90;;;;;;;4.91;68.74;99783.69;116609;1201;23580;-60
2021/10/16 01:04:07;;;;;;;30.60;18.00;;;;;;;4.82;69.21;99787.58;116427;1202;138985;-60
2021/10/16 01:06:38;;;;;;;26.30;17.50;;;;;;;4.74;69.13;99793.40;116574;1201;23010;-60
2021/10/16 01:09:09;;;;;;;26.90;16.60;;;;;;;4.68;69.39;99793.95;116457;1202;22595;-60
2021/10/16 01:11:40;;;;;;;26.40;17.40;;;;;;;4.61;69.81;99794.90;116406;1202;137903;-60
2021/10/16 01:14:10;;;;;;;28.50;18.40;;;;;;;4.56;70.09;99793.88;116611;1200;22340;-60
2021/10/16 01:16:41;;;;;;;29.00;18.50;;;;;;;4.54;70.47;99793.71;116523;1201;137919;-60
2021/10/16 01:19:13;;;;;;;27.80;18.10;;;;;;;4.54;71.00;99795.45;116559;1202;23218;-60
2021/10/16 01:21:43;;;;;;;35.20;20.00;;;;;;;4.57;70.95;99800.80;116627;1201;22307;-60
2021/10/16 01:24:12;;;;;;;34.00;18.40;;;;;;;4.60;71.68;99802.88;116449;1201;138284;-60
2021/10/16 01:26:41;;;;;;;28.50;18.70;;;;;;;4.64;71.60;99801.48;116597;1201;22273;-60
2021/10/16 01:29:10;;;;;;;28.50;17.40;;;;;;;4.71;72.52;99797.65;116545;1201;139369;-61
2021/10/16 01:31:40;;;;;;;30.70;17.70;;;;;;;4.78;72.47;99787.80;116620;1196;23564;-61
2021/10/16 01:34:08;;;;;;;25.80;17.80;;;;;;;4.86;72.91;99784.01;116476;1201;138448;-61
2021/10/16 01:36:49;;;;;;;33.20;18.30;;;;;;;4.94;72.85;99790.14;116585;1202;22256;-61
2021/10/16 01:39:21;;;;;;;35.10;20.30;;;;;;;5.05;72.83;99789.11;116455;1202;22406;-61
2021/10/16 01:41:50;;;;;;;34.70;18.90;;;;;;;5.14;73.25;99787.95;116469;1201;138245;-60
2021/10/16 01:44:18;;;;;;;32.90;18.50;;;;;;;5.23;72.89;99784.89;116507;1201;22215;-61
2021/10/16 01:46:47;;;;;;;30.90;18.30;;;;;;;5.33;73.05;99785.58;116498;1201;138213;-61
2021/10/16 01:49:21;;;;;;;32.20;18.00;;;;;;;5.42;72.79;99778.98;116616;1201;22333;-60
2021/10/16 01:51:53;;;;;;;29.60;17.70;;;;;;;5.50;72.62;99774.33;116619;1201;22314;-61
2021/10/16 01:54:21;;;;;;;34.40;19.30;;;;;;;5.58;72.56;99769.08;116425;1201;138994;-60
2021/10/16 01:56:54;;;;;;;34.30;19.50;;;;;;;5.65;72.52;99765.18;116404;1202;22256;-60
2021/10/16 01:59:23;;;;;;;30.00;17.40;;;;;;;5.72;72.40;99764.88;116452;1200;138957;-59
2021/10/16 02:02:13;;;;;;;33.10;19.20;;;;;;;5.80;72.50;99756.15;116555;1200;22265;-60
2021/10/16 02:04:48;;;;;;;29.20;17.80;;;;;;;5.85;72.09;99751.47;116492;1201;138777;-60
2021/10/16 02:07:16;;;;;;;32.40;17.90;;;;;;;5.92;72.05;99754.41;116610;1201;22487;-60
2021/10/16 02:09:45;;;;;;;30.50;18.40;;;;;;;5.98;71.81;99758.02;116582;1201;22342;-60
2021/10/16 02:12:13;;;;;;;35.00;19.30;;;;;;;6.03;71.77;99754.95;116529;1193;138078;-60
2021/10/16 02:14:42;;;;;;;28.60;17.10;;;;;;;6.08;71.73;99758.17;116609;1201;22331;-60
2021/10/16 02:17:12;;;;;;;27.30;18.20;;;;;;;6.14;71.34;99761.00;116514;1200;137835;-60
2021/10/16 02:19:40;;;;;;;27.10;18.00;;;;;;;6.18;71.17;99758.92;116614;1201;22613;-60
2021/10/16 02:22:09;;;;;;;31.40;19.30;;;;;;;6.22;71.12;99756.11;116506;1197;137924;-60
2021/10/16 02:24:37;;;;;;;31.10;18.80;;;;;;;6.26;71.05;99751.48;116387;1201;22421;-60
2021/10/16 02:27:05;;;;;;;33.00;19.20;;;;;;;6.29;71.09;99748.23;116610;1201;22326;-60
2021/10/16 02:29:34;;;;;;;30.70;18.70;;;;;;;6.32;70.80;99749.83;116560;1201;137067;-60
2021/10/16 02:32:06;;;;;;;32.20;19.50;;;;;;;6.34;70.78;99749.23;116619;1201;23251;-60
2021/10/16 02:34:36;;;;;;;33.10;19.50;;;;;;;6.36;70.71;99747.50;116488;1201;137821;-60
2021/10/16 02:37:06;;;;;;;36.30;20.70;;;;;;;6.37;70.77;99747.54;116566;1201;22188;-61
2021/10/16 02:39:34;;;;;;;31.60;19.00;;;;;;;6.39;70.76;99748.77;116613;1201;23342;-60
2021/10/16 02:42:03;;;;;;;31.90;19.50;;;;;;;6.42;70.74;99747.13;116531;1201;137817;-60
2021/10/16 02:44:32;;;;;;;30.30;18.80;;;;;;;6.44;70.46;99746.27;116681;1197;22333;-60
2021/10/16 02:47:00;;;;;;;32.20;20.00;;;;;;;6.45;70.58;99751.72;116500;1201;137858;-60
2021/10/16 02:49:29;;;;;;;29.80;18.90;;;;;;;6.48;70.47;99749.16;116607;1196;22329;-60
2021/10/16 02:51:58;;;;;;;30.90;18.60;;;;;;;6.50;70.37;99745.52;116714;1200;22490;-60
2021/10/16 02:54:26;;;;;;;32.20;18.10;;;;;;;6.51;70.56;99738.23;116462;1200;138527;-60
2021/10/16 02:56:55;;;;;;;29.30;19.20;;;;;;;6.54;70.22;99739.70;116596;1194;22346;-60
2021/10/16 02:59:23;;;;;;;25.60;17.70;;;;;;;6.57;70.26;99743.79;116627;1193;137872;-60
2021/10/16 03:01:53;;;;;;;30.10;18.50;;;;;;;6.60;70.39;99741.22;116636;1200;22324;-60
2021/10/16 03:04:26;;;;;;;33.30;18.50;;;;;;;6.63;70.10;99742.24;116514;1201;138149;-60
2021/10/16 03:06:55;;;;;;;30.10;18.70;;;;;;;6.66;70.21;99735.00;116659;1201;22298;-60
2021/10/16 03:09:24;;;;;;;30.80;18.70;;;;;;;6.67;70.04;99731.04;116624;1201;22320;-61
2021/10/16 03:11:52;;;;;;;37.90;20.70;;;;;;;6.71;70.11;99733.83;116473;1201;137590;-60
2021/10/16 03:14:20;;;;;;;30.30;18.90;;;;;;;6.73;70.01;99730.52;116666;1201;22231;-60
2021/10/16 03:16:50;;;;;;;28.80;18.90;;;;;;;6.74;69.89;99731.24;116536;1200;138940;-60
2021/10/16 03:19:19;;;;;;;31.40;20.90;;;;;;;6.74;70.00;99728.92;116674;1199;22802;-60
2021/10/16 03:21:52;;;;;;;35.60;20.10;;;;;;;6.77;69.86;99732.45;116727;1200;22312;-60
2021/10/16 03:24:28;;;;;;;32.60;19.30;;;;;;;6.78;69.73;99736.42;116501;1200;137741;-60
2021/10/16 03:26:56;;;;;;;37.10;19.50;;;;;;;6.78;69.66;99735.23;116678;1200;22243;-60
2021/10/16 03:29:25;;;;;;;32.60;19.80;;;;;;;6.79;69.64;99732.42;116663;1200;138018;-60
2021/10/16 03:31:53;;;;;;;28.80;19.20;;;;;;;6.79;69.66;99729.63;116489;1195;22331;-60
2021/10/16 03:34:21;;;;;;;33.40;20.30;;;;;;;6.80;69.65;99726.78;116499;1200;138427;-61
2021/10/16 03:36:55;;;;;;;28.70;19.00;;;;;;;6.81;69.65;99724.98;116643;1200;22285;-61
2021/10/16 03:41:53;;;;;;;34.30;18.30;;;;;;;6.88;69.52;99723.86;110667;1211;544862;-60
2021/10/16 03:44:21;;;;;;;30.00;19.10;;;;;;;6.87;69.64;99726.08;116054;1204;22407;-61
2021/10/16 03:46:49;;;;;;;35.00;20.60;;;;;;;6.89;69.35;99727.38;115824;1205;139103;-61
2021/10/16 03:49:18;;;;;;;34.50;18.50;;;;;;;6.92;69.45;99728.48;116049;1204;23077;-61
2021/10/16 03:51:48;;;;;;;31.90;19.30;;;;;;;6.94;69.42;99728.80;115946;1204;23658;-61
2021/10/16 03:54:16;;;;;;;32.80;18.90;;;;;;;6.96;69.40;99727.66;116244;1202;139196;-61
2021/10/16 03:56:45;;;;;;;28.90;17.90;;;;;;;6.98;69.28;99728.55;116465;1203;22295;-61
2021/10/16 03:59:15;;;;;;;31.80;19.10;;;;;;;7.00;69.27;99726.77;116326;1202;138665;-61
2021/10/16 04:01:43;;;;;;;38.70;20.30;;;;;;;7.03;69.23;99727.11;116332;1202;22249;-60
2021/10/16 04:04:11;;;;;;;31.20;19.60;;;;;;;7.06;69.05;99728.98;116368;1203;138500;-62
2021/10/16 04:06:39;;;;;;;41.40;20.30;;;;;;;7.07;69.10;99718.73;116363;1203;22190;-60
2021/10/16 04:09:07;;;;;;;32.80;20.60;;;;;;;7.10;68.93;99723.45;116406;1202;22277;-60
2021/10/16 04:11:36;;;;;;;32.60;19.40;;;;;;;7.13;68.82;99722.92;116353;1202;137464;-61
2021/10/16 04:14:05;;;;;;;32.20;18.70;;;;;;;7.15;68.41;99720.94;116334;1203;22303;-61
2021/10/16 04:16:33;;;;;;;29.70;18.60;;;;;;;7.18;68.32;99724.85;113819;1203;136802;-61
2021/10/16 04:19:03;;;;;;;30.30;18.20;;;;;;;7.21;68.28;99732.58;116534;1203;23386;-62
2021/10/16 04:21:31;;;;;;;28.20;18.00;;;;;;;7.23;68.41;99734.77;116340;1203;22312;-62
2021/10/16 04:24:21;;;;;;;34.00;18.30;;;;;;;7.25;68.10;99737.87;116177;1203;138159;-62
2021/10/16 04:26:49;;;;;;;30.60;18.60;;;;;;;7.27;68.14;99731.84;116324;1203;22468;-61
2021/10/16 04:29:24;;;;;;;28.70;18.00;;;;;;;7.29;68.02;99728.71;116514;1199;138250;-60
2021/10/16 04:32:10;;;;;;;30.80;18.50;;;;;;;7.32;68.09;99725.32;116547;1200;22317;-59
2021/10/16 04:34:38;;;;;;;29.00;17.10;;;;;;;7.34;68.04;99723.53;116475;1201;137672;-60
2021/10/16 04:37:06;;;;;;;24.60;17.50;;;;;;;7.35;67.92;99721.19;116569;1201;22328;-61
2021/10/16 04:39:35;;;;;;;26.00;17.90;;;;;;;7.37;67.84;99722.30;116555;1201;22866;-62
2021/10/16 04:42:04;;;;;;;30.00;18.30;;;;;;;7.39;67.90;99722.80;116508;1200;139434;-61
2021/10/16 04:44:33;;;;;;;29.00;18.60;;;;;;;7.42;67.81;99722.65;116571;1200;22377;-60
2021/10/16 04:47:01;;;;;;;33.00;18.30;;;;;;;7.44;67.81;99725.03;116313;1201;138463;-60
2021/10/16 04:49:29;;;;;;;30.70;19.70;;;;;;;7.45;67.99;99725.18;116455;1193;23172;-61
2021/10/16 04:51:57;;;;;;;27.80;17.90;;;;;;;7.49;68.41;99727.77;116474;1200;22342;-60
2021/10/16 04:54:25;;;;;;;26.50;18.00;;;;;;;7.50;68.44;99730.34;116433;1201;137347;-60
2021/10/16 04:56:54;;;;;;;30.30;17.80;;;;;;;7.51;68.73;99728.51;116566;1200;22241;-61
2021/10/16 04:59:24;;;;;;;31.30;18.60;;;;;;;7.53;68.97;99726.21;116354;1200;138318;-63
2021/10/16 05:01:54;;;;;;;29.60;17.80;;;;;;;7.53;69.16;99724.22;116612;1200;22198;-61
2021/10/16 05:04:23;;;;;;;25.80;17.40;;;;;;;7.55;69.49;99720.90;116464;1194;138480;-61
2021/10/16 05:06:54;;;;;;;32.60;18.20;;;;;;;7.56;69.59;99719.04;116588;1187;23288;-60
2021/10/16 05:09:23;;;;;;;34.90;18.70;;;;;;;7.57;69.61;99719.77;116604;1201;22459;-60
2021/10/16 05:11:51;;;;;;;31.80;18.80;;;;;;;7.59;69.82;99720.95;116478;1201;138352;-60
2021/10/16 05:14:39;;;;;;;32.70;19.10;;;;;;;7.59;70.00;99720.16;116616;1200;22346;-60
2021/10/16 05:17:09;;;;;;;32.10;17.80;;;;;;;7.60;69.96;99719.10;116480;1196;138558;-61
2021/10/16 05:19:44;;;;;;;29.30;17.50;;;;;;;7.60;70.31;99716.02;116607;1200;23577;-60
2021/10/16 05:22:12;;;;;;;29.30;18.00;;;;;;;7.63;70.19;99718.19;116467;1201;138060;-61
2021/10/16 05:24:40;;;;;;;30.00;18.40;;;;;;;7.64;70.37;99716.38;116615;1200;22172;-61
2021/10/16 05:27:08;;;;;;;29.50;19.10;;;;;;;7.65;70.52;99708.52;116571;1200;22321;-60
2021/10/16 05:29:38;;;;;;;27.20;17.70;;;;;;;7.65;70.57;99704.79;116510;1200;138323;-61
2021/10/16 05:32:07;;;;;;;30.40;17.20;;;;;;;7.69;70.33;99713.11;116566;1200;22436;-61
2021/10/16 05:34:36;;;;;;;25.40;17.90;;;;;;;7.71;70.31;99710.73;116540;1200;137797;-61
2021/10/16 05:37:06;;;;;;;30.10;17.80;;;;;;;7.73;70.32;99708.73;116639;1201;23440;-61
2021/10/16 05:39:36;;;;;;;28.90;18.30;;;;;;;7.75;70.27;99709.80;116658;1200;22939;-60
2021/10/16 05:42:05;;;;;;;28.70;18.00;;;;;;;7.78;70.26;99706.30;116519;1200;137580;-61
2021/10/16 05:44:34;;;;;;;27.50;19.10;;;;;;;7.81;70.39;99718.81;116533;1200;22366;-60
2021/10/16 05:47:03;;;;;;;27.60;18.90;;;;;;;7.84;70.25;99718.73;116578;1201;137578;-59
2021/10/16 05:49:31;;;;;;;27.60;18.10;;;;;;;7.85;70.25;99716.71;116603;1200;22323;-60
2021/10/16 05:52:01;;;;;;;28.00;19.20;;;;;;;7.87;70.37;99722.23;116639;1201;22334;-60
2021/10/16 05:54:29;;;;;;;47.00;19.50;;;;;;;7.89;70.53;99716.58;116466;1201;138147;-59
2021/10/16 05:56:57;;;;;;;33.80;20.00;;;;;;;7.91;70.61;99717.77;116574;1196;23301;-60
2021/10/16 05:59:25;;;;;;;30.10;20.20;;;;;;;7.95;70.79;99725.63;116343;1201;139443;-61
2021/10/16 06:01:54;;;;;;;29.60;20.10;;;;;;;8.00;70.93;99725.50;116339;1202;22551;-61
2021/10/16 06:04:24;;;;;;;28.90;19.20;;;;;;;8.03;70.91;99723.98;116193;1202;139011;-61
2021/10/16 06:06:53;;;;;;;30.30;19.00;;;;;;;8.08;70.79;99720.77;116387;1202;22477;-60
2021/10/16 06:09:24;;;;;;;35.60;20.10;;;;;;;8.11;71.09;99717.58;116507;1202;22453;-61
2021/10/16 06:11:52;;;;;;;31.80;21.20;;;;;;;8.14;71.10;99723.56;116339;1202;137974;-62
2021/10/16 06:14:20;;;;;;;32.20;20.00;;;;;;;8.17;71.00;99721.35;116463;1196;22338;-62
2021/10/16 06:16:49;;;;;;;31.60;20.70;;;;;;;8.20;70.98;99717.89;113152;1196;140235;-60
2021/10/16 06:19:18;;;;;;;32.10;22.20;;;;;;;8.23;70.97;99720.70;116273;1201;23524;-61
2021/10/16 06:21:47;;;;;;;32.40;21.30;;;;;;;8.25;71.02;99722.27;116394;1201;22283;-62
2021/10/16 06:24:15;;;;;;;31.10;20.40;;;;;;;8.28;71.07;99720.56;116227;1202;137939;-62
2021/10/16 06:26:48;;;;;;;32.30;20.60;;;;;;;8.31;70.97;99721.39;116336;1202;23204;-62
2021/10/16 06:29:16;;;;;;;34.20;20.60;;;;;;;8.34;71.07;99724.82;116291;1202;138244;-60
2021/10/16 06:31:44;;;;;;;33.10;21.60;;;;;;;8.38;70.93;99729.06;116178;1202;23522;-59
2021/10/16 06:34:13;;;;;;;37.50;22.10;;;;;;;8.42;70.65;99728.33;116006;1203;138370;-59
2021/10/16 06:36:42;;;;;;;34.70;21.20;;;;;;;8.46;70.54;99731.69;116203;1202;22268;-59
2021/10/16 06:39:10;;;;;;;31.80;22.00;;;;;;;8.49;70.34;99735.40;116304;1202;22262;-59
2021/10/16 06:41:43;;;;;;;32.20;21.10;;;;;;;8.50;70.20;99733.77;116205;1201;137714;-59
2021/10/16 06:44:26;;;;;;;33.00;21.10;;;;;;;8.54;70.10;99730.64;116585;1201;23248;-59
2021/10/16 06:47:13;;;;;;;34.60;21.80;;;;;;;8.56;70.18;99732.32;116430;1202;137882;-59
2021/10/16 06:49:45;;;;;;;30.70;22.70;;;;;;;8.56;70.13;99735.52;116284;1202;22346;-59
2021/10/16 06:52:13;;;;;;;38.70;21.50;;;;;;;8.56;69.99;99734.81;116281;1202;138550;-60
2021/10/16 06:54:42;;;;;;;40.00;22.80;;;;;;;8.56;70.01;99733.28;116481;1202;22288;-59
2021/10/16 06:57:10;;;;;;;37.40;22.50;;;;;;;8.56;70.06;99726.94;116270;1202;22334;-59
2021/10/16 06:59:39;;;;;;;33.10;21.00;;;;;;;8.56;70.20;99725.69;116203;1202;137700;-59
2021/10/16 07:02:07;;;;;;;37.50;21.80;;;;;;;8.55;70.14;99726.11;116324;1201;22456;-59
2021/10/16 07:04:47;;;;;;;36.10;21.20;;;;;;;8.55;70.23;99731.38;116427;1201;139146;-59
2021/10/16 07:07:15;;;;;;;34.00;21.30;;;;;;;8.56;70.13;99729.48;116558;1200;22356;-59
2021/10/16 07:09:49;;;;;;;41.90;22.30;;;;;;;8.56;70.19;99730.09;116632;1201;22376;-59
2021/10/16 07:12:17;;;;;;;32.70;22.30;;;;;;;8.57;70.11;99728.04;116512;1200;138454;-59
2021/10/16 07:14:45;;;;;;;34.30;21.80;;;;;;;8.58;70.19;99731.71;116631;1200;23018;-59
2021/10/16 07:17:13;;;;;;;36.20;22.70;;;;;;;8.59;70.11;99727.45;116356;1201;138623;-58
2021/10/16 07:19:41;;;;;;;35.00;20.70;;;;;;;8.62;70.27;99720.05;116620;1201;22313;-60
2021/10/16 07:22:09;;;;;;;37.80;22.40;;;;;;;8.63;70.30;99716.30;116520;1200;138197;-60
2021/10/16 07:24:37;;;;;;;40.40;22.60;;;;;;;8.66;70.34;99715.20;116632;1201;23098;-59
2021/10/16 07:27:05;;;;;;;37.30;21.80;;;;;;;8.69;70.30;99712.20;116632;1200;22464;-60
2021/10/16 07:29:34;;;;;;;32.30;20.60;;;;;;;8.72;70.37;99718.70;116547;1201;137778;-60
2021/10/16 07:32:03;;;;;;;37.40;22.40;;;;;;;8.76;70.46;99719.34;116601;1200;23276;-60
2021/10/16 07:34:31;;;;;;;34.00;21.60;;;;;;;8.81;70.55;99715.71;116468;1201;138241;-60
2021/10/16 07:36:59;;;;;;;39.60;23.00;;;;;;;8.85;70.23;99716.23;116698;1201;23241;-59
2021/10/16 07:39:28;;;;;;;32.20;21.70;;;;;;;8.90;70.20;99724.15;116613;1201;22382;-59
2021/10/16 07:41:56;;;;;;;33.80;21.60;;;;;;;8.94;70.20;99728.42;116545;1200;138618;-60
2021/10/16 07:44:24;;;;;;;32.70;22.70;;;;;;;8.99;70.09;99730.04;116700;1201;23001;-60
2021/10/16 07:46:52;;;;;;;37.60;24.40;;;;;;;9.04;69.88;99729.02;116498;1200;138503;-60
2021/10/16 07:49:20;;;;;;;33.90;22.90;;;;;;;9.09;69.83;99732.99;116599;1200;22244;-59
2021/10/16 07:51:48;;;;;;;33.60;22.70;;;;;;;9.13;69.77;99733.91;116733;1200;22306;-58
2021/10/16 07:54:18;;;;;;;36.10;22.70;;;;;;;9.19;69.61;99732.55;116536;1201;138526;-59
2021/10/16 07:56:46;;;;;;;34.80;22.00;;;;;;;9.23;69.27;99723.97;116633;1200;22428;-60
2021/10/16 07:59:14;;;;;;;42.20;29.00;;;;;;;9.28;69.08;99727.20;116527;1200;139177;-61
2021/10/16 08:01:45;;;;;;;67.10;38.50;;;;;;;9.31;68.87;99724.92;116489;1201;22521;-61
2021/10/16 08:04:13;;;;;;;75.50;44.60;;;;;;;9.34;68.93;99721.73;116510;1200;138551;-61
2021/10/16 08:06:41;;;;;;;78.00;44.60;;;;;;;9.37;68.85;99721.50;116624;1201;22235;-61
2021/10/16 08:09:11;;;;;;;76.30;44.30;;;;;;;9.39;68.80;99724.30;116582;1201;22347;-60
2021/10/16 08:11:47;;;;;;;98.70;53.50;;;;;;;9.40;69.00;99727.15;116436;1200;138243;-60
2021/10/16 08:14:35;;;;;;;47.40;29.70;;;;;;;9.42;69.00;99721.20;116640;1201;22352;-61
2021/10/16 08:17:07;;;;;;;46.30;28.20;;;;;;;9.42;68.90;99721.80;116498;1200;138208;-61
2021/10/16 08:19:36;;;;;;;45.10;24.50;;;;;;;9.43;69.05;99716.48;116540;1200;22459;-61
2021/10/16 08:22:04;;;;;;;41.20;22.40;;;;;;;9.44;69.06;99713.95;116629;1200;23069;-62
2021/10/16 08:24:32;;;;;;;45.20;25.30;;;;;;;9.46;69.20;99713.05;116410;1193;137995;-63
2021/10/16 08:27:05;;;;;;;55.40;26.80;;;;;;;9.48;69.33;99713.21;116452;1200;22312;-62
2021/10/16 08:29:34;;;;;;;49.00;25.00;;;;;;;9.52;69.36;99712.79;116493;1200;138227;-62
2021/10/16 08:32:03;;;;;;;38.90;23.70;;;;;;;9.54;69.22;99707.48;116543;1200;23144;-63
2021/10/16 08:34:32;;;;;;;46.60;25.50;;;;;;;9.56;69.17;99711.33;116561;1200;138368;-61
2021/10/16 08:37:00;;;;;;;41.70;24.40;;;;;;;9.59;69.05;99709.15;116569;1200;22335;-63
2021/10/16 08:39:28;;;;;;;36.60;23.10;;;;;;;9.62;69.17;99710.71;116573;1197;22360;-63
2021/10/16 08:41:58;;;;;;;42.40;24.30;;;;;;;9.63;68.94;99710.48;116506;1200;139161;-62
2021/10/16 08:44:27;;;;;;;45.30;25.60;;;;;;;9.65;69.14;99706.09;116484;1201;22974;-64
2021/10/16 08:46:57;;;;;;;41.30;27.30;;;;;;;9.68;69.23;99705.48;116436;1200;138744;-64
2021/10/16 08:49:28;;;;;;;45.00;26.50;;;;;;;9.75;69.40;99701.89;116628;1200;22337;-69
2021/10/16 08:51:56;;;;;;;35.70;23.00;;;;;;;9.81;69.36;99694.53;116570;1200;22441;-66
2021/10/16 08:54:24;;;;;;;33.30;23.20;;;;;;;9.88;69.46;99699.05;116514;1200;138255;-64
2021/10/16 08:56:52;;;;;;;36.10;23.40;;;;;;;9.96;69.22;99708.27;116625;1201;22378;-65
2021/10/16 08:59:20;;;;;;;47.10;24.60;;;;;;;10.04;68.92;99717.48;116489;1200;138242;-64
2021/10/16 09:01:59;;;;;;;43.60;25.70;;;;;;;10.09;68.78;99715.75;116661;1200;22338;-60
2021/10/16 09:04:28;;;;;;;39.30;26.00;;;;;;;10.14;68.88;99716.42;116509;1200;139395;-61
2021/10/16 09:06:56;;;;;;;45.70;25.80;;;;;;;10.21;68.76;99715.85;116620;1200;22333;-61
2021/10/16 09:09:30;;;;;;;42.10;24.20;;;;;;;10.28;68.31;99713.77;116631;1200;22385;-63
2021/10/16 09:11:58;;;;;;;36.50;23.70;;;;;;;10.36;67.94;99716.93;116526;1200;138087;-64
2021/10/16 09:14:27;;;;;;;40.90;23.20;;;;;;;10.43;68.05;99718.27;116619;1200;22341;-62
2021/10/16 09:17:01;;;;;;;35.20;24.90;;;;;;;10.50;67.81;99716.62;116537;1200;138347;-62
2021/10/16 09:19:33;;;;;;;34.30;23.30;;;;;;;10.56;67.30;99711.58;116568;1200;22368;-64
2021/10/16 09:22:09;;;;;;;33.90;22.90;;;;;;;10.62;67.45;99710.02;116641;1200;22433;-63
2021/10/16 09:24:41;;;;;;;32.80;21.10;;;;;;;10.71;67.39;99707.13;116517;1200;137819;-63
2021/10/16 09:27:13;;;;;;;34.60;22.40;;;;;;;10.79;67.15;99707.23;116648;1200;22389;-63
2021/10/16 09:29:44;;;;;;;32.80;21.90;;;;;;;10.86;66.71;99704.53;116454;1200;137994;-62
2021/10/16 09:32:17;;;;;;;35.20;22.70;;;;;;;10.94;66.45;99709.09;116633;1201;22245;-62
2021/10/16 09:34:49;;;;;;;31.00;20.70;;;;;;;11.02;66.22;99710.20;116529;1200;139910;-63
2021/10/16 09:37:20;;;;;;;31.30;20.40;;;;;;;11.09;65.42;99711.64;116649;1200;22354;-63
2021/10/16 09:39:48;;;;;;;29.10;19.90;;;;;;;11.14;65.14;99712.67;116661;1201;23127;-64
2021/10/16 09:42:42;;;;;;;30.40;20.10;;;;;;;11.18;64.81;99707.88;116483;1200;139040;-64
2021/10/16 09:45:14;;;;;;;29.20;19.10;;;;;;;11.22;64.25;99704.43;116595;1200;22141;-64
2021/10/16 09:47:52;;;;;;;25.00;17.50;;;;;;;11.26;64.12;99693.76;116548;1200;138181;-64
2021/10/16 09:50:20;;;;;;;28.40;18.10;;;;;;;11.30;64.07;99692.16;116563;1201;22341;-61
2021/10/16 09:52:50;;;;;;;25.00;17.80;;;;;;;11.35;63.53;99697.02;116514;1200;138216;-62
2021/10/16 09:55:19;;;;;;;34.70;19.80;;;;;;;11.39;63.46;99695.64;116561;1200;23118;-62
2021/10/16 09:57:48;;;;;;;23.40;18.40;;;;;;;11.44;63.41;99697.47;116541;1200;23115;-63
2021/10/16 10:00:17;;;;;;;24.80;16.30;;;;;;;11.50;63.33;99698.90;116396;1196;137814;-62
2021/10/16 10:02:49;;;;;;;26.10;16.50;;;;;;;11.55;63.00;99697.68;116691;1200;22352;-64
2021/10/16 10:05:17;;;;;;;23.60;16.00;;;;;;;11.62;62.84;99700.80;116435;1201;139273;-63
2021/10/16 10:07:46;;;;;;;74.80;18.70;;;;;;;11.67;62.54;99695.88;116618;1200;22329;-63
2021/10/16 10:10:14;;;;;;;25.30;15.20;;;;;;;11.74;62.12;99689.70;116480;1200;22341;-63
2021/10/16 10:12:42;;;;;;;23.80;15.30;;;;;;;11.80;61.73;99686.73;116411;1201;137942;-63
2021/10/16 10:15:19;;;;;;;23.30;15.30;;;;;;;11.87;61.27;99681.95;116554;1201;23328;-63
2021/10/16 10:20:57;;;;;;;;;;;;;;;12.02;60.82;99675.73;116648;1200;22400;-64
2021/10/16 10:23:26;;;;;;;21.20;14.70;;;;;;;12.09;60.45;99673.27;116515;1200;125011;-65
2021/10/16 10:26:26;;;;;;;20.80;14.30;;;;;;;12.14;60.37;99667.55;116659;1200;23376;-64
2021/10/16 10:29:17;;;;;;;20.90;15.20;;;;;;;12.20;60.05;99661.36;116518;1201;138491;-63
2021/10/16 10:31:49;;;;;;;23.60;14.90;;;;;;;12.26;59.85;99660.95;116621;1200;22246;-63
2021/10/16 10:34:18;;;;;;;18.50;13.20;;;;;;;12.31;59.69;99660.38;116617;1200;23103;-63
2021/10/16 10:36:49;;;;;;;19.90;13.80;;;;;;;12.36;59.20;99658.29;116493;1200;137696;-63
2021/10/16 10:39:33;;;;;;;22.50;14.40;;;;;;;12.40;59.15;99663.16;116542;1201;22353;-64
2021/10/16 10:42:13;;;;;;;17.30;13.40;;;;;;;12.46;58.93;99659.73;116477;1201;138276;-65
2021/10/16 10:44:42;;;;;;;23.20;14.10;;;;;;;12.49;58.64;99655.98;116555;1200;22542;-63
2021/10/16 10:47:30;;;;;;;21.80;14.60;;;;;;;12.53;58.58;99656.55;116503;1201;138030;-64
2021/10/16 10:50:10;;;;;;;20.70;14.80;;;;;;;12.57;58.30;99654.69;116585;1200;22923;-64
2021/10/16 10:52:59;;;;;;;17.10;13.10;;;;;;;12.62;58.47;99655.20;116553;1197;137390;-63
2021/10/16 10:55:27;;;;;;;18.10;13.00;;;;;;;12.65;58.23;99650.25;116676;1200;22475;-63
2021/10/16 10:57:59;;;;;;;23.70;14.40;;;;;;;12.68;58.51;99644.80;116615;1200;23038;-63
2021/10/16 11:00:29;;;;;;;21.80;14.50;;;;;;;12.72;57.99;99640.96;116482;1200;138187;-63
2021/10/16 11:02:57;;;;;;;24.60;15.20;;;;;;;12.75;57.86;99641.52;116647;1200;22206;-63
2021/10/16 11:05:33;;;;;;;20.90;14.70;;;;;;;12.78;58.02;99642.63;116540;1200;137546;-63
2021/10/16 11:08:07;;;;;;;19.70;14.20;;;;;;;12.79;57.78;99641.21;116666;1200;22499;-64
2021/10/16 11:10:36;;;;;;;24.20;15.50;;;;;;;12.80;57.66;99639.14;116547;1200;138361;-63
2021/10/16 11:13:11;;;;;;;23.10;15.00;;;;;;;12.80;57.49;99638.20;116642;1200;23481;-64
2021/10/16 11:15:40;;;;;;;21.60;14.40;;;;;;;12.80;58.02;99632.73;116553;1201;23012;-63
2021/10/16 11:18:14;;;;;;;21.80;15.00;;;;;;;12.81;58.04;99633.84;116427;1202;138057;-64
2021/10/16 11:20:42;;;;;;;27.50;15.10;;;;;;;12.83;58.26;99627.27;116613;1200;22105;-63
2021/10/16 11:23:17;;;;;;;28.00;18.70;;;;;;;12.86;58.16;99621.41;116424;1201;137537;-63
2021/10/16 11:26:00;;;;;;;21.40;15.60;;;;;;;12.90;57.84;99618.20;116651;1201;23399;-62
2021/10/16 11:28:31;;;;;;;22.80;15.00;;;;;;;12.93;57.49;99616.03;116531;1201;138837;-66
2021/10/16 11:30:59;;;;;;;26.80;17.70;;;;;;;12.94;57.55;99619.38;116609;1200;22299;-65
2021/10/16 11:33:36;;;;;;;27.00;17.30;;;;;;;12.95;57.68;99620.41;116612;1200;23440;-65